Time;durP1;ratioP1;P1;durP2;ratioP2;P2;SDS_P1;SDS_P2;PMS_P1;PMS_P2;Temp;Humidity;BMP_temperature;BMP_pressure;BME280_temperature;BME280_humidity;BME280_pressure;Samples;Min_cycle;Max_cycle;Signal;HPM_P1;HPM_P2
2021/11/23 00:00:37;;;;;;;21.52;16.17;;;;;;;2.85;79.94;97800.75;1820015;78;25837;-84
2021/11/23 00:03:06;;;;;;;23.52;15.75;;;;;;;2.81;79.78;97806.05;1819787;77;25723;-84
2021/11/23 00:05:34;;;;;;;19.02;14.83;;;;;;;2.84;79.77;97813.74;1819917;77;25761;-85
2021/11/23 00:08:02;;;;;;;22.82;15.70;;;;;;;2.89;79.71;97819.47;1819811;77;27436;-84
2021/11/23 00:10:29;;;;;;;20.00;15.45;;;;;;;2.92;79.52;97808.47;1778409;79;25722;-84
2021/11/23 00:12:55;;;;;;;23.30;16.35;;;;;;;2.90;79.53;97812.62;1791922;78;25829;-84
2021/11/23 00:15:22;;;;;;;20.32;14.85;;;;;;;2.96;79.62;97818.34;1791868;78;25783;-84
2021/11/23 00:17:49;;;;;;;20.82;15.25;;;;;;;2.99;79.42;97825.55;1791775;78;25238;-85
2021/11/23 00:20:15;;;;;;;22.10;14.55;;;;;;;2.98;79.34;97834.53;1791696;78;27399;-85
2021/11/23 00:22:42;;;;;;;19.85;14.35;;;;;;;3.01;79.25;97832.06;1791724;78;25708;-84
2021/11/23 00:25:10;;;;;;;18.80;13.00;;;;;;;3.02;79.15;97843.08;1791818;78;25357;-84
2021/11/23 00:27:36;;;;;;;16.80;12.50;;;;;;;3.03;79.02;97844.23;1791851;78;25792;-84
2021/11/23 00:30:04;;;;;;;20.52;13.15;;;;;;;2.98;78.80;97843.87;1791861;80;25366;-84
2021/11/23 00:32:32;;;;;;;16.80;12.20;;;;;;;2.96;78.83;97845.02;1791758;78;27602;-84
2021/11/23 00:34:58;;;;;;;20.65;13.22;;;;;;;2.90;78.88;97850.44;1791347;78;25684;-84
2021/11/23 00:37:25;;;;;;;22.07;13.22;;;;;;;2.81;78.74;97854.03;1791839;78;25716;-83
2021/11/23 00:39:52;;;;;;;19.20;13.38;;;;;;;2.68;78.70;97849.56;1791800;78;25735;-84
2021/11/23 00:42:18;;;;;;;16.52;12.63;;;;;;;2.61;78.89;97849.84;1791960;78;26391;-84
2021/11/23 00:44:45;;;;;;;19.12;12.33;;;;;;;2.54;79.00;97850.42;1791712;78;27416;-84
2021/11/23 00:47:11;;;;;;;15.95;12.07;;;;;;;2.49;79.08;97855.38;1791631;78;25784;-84
2021/11/23 00:49:38;;;;;;;17.12;12.63;;;;;;;2.45;79.02;97853.16;1791821;78;25686;-84
2021/11/23 00:52:05;;;;;;;18.15;11.88;;;;;;;2.43;79.10;97851.13;1793973;78;25725;-84
2021/11/23 00:54:31;;;;;;;17.48;11.97;;;;;;;2.42;79.21;97851.63;1795023;78;25765;-84
2021/11/23 00:56:58;;;;;;;20.68;13.13;;;;;;;2.41;79.29;97847.80;1741735;81;27478;-84
2021/11/23 00:59:24;;;;;;;18.48;12.00;;;;;;;2.39;79.24;97848.44;1737711;81;25723;-84
2021/11/23 01:01:51;;;;;;;20.50;13.75;;;;;;;2.40;79.24;97854.95;1737739;82;25836;-84
2021/11/23 01:04:17;;;;;;;20.48;13.13;;;;;;;2.47;79.30;97856.02;1737700;81;25815;-84
2021/11/23 01:06:46;;;;;;;18.98;13.48;;;;;;;2.53;79.20;97854.11;1737934;81;25688;-84
2021/11/23 01:09:12;;;;;;;19.65;14.15;;;;;;;2.57;79.10;97853.78;1733248;81;27527;-84
2021/11/23 01:11:39;;;;;;;20.45;14.13;;;;;;;2.59;78.92;97851.81;1733252;81;25652;-84
2021/11/23 01:14:07;;;;;;;21.27;13.95;;;;;;;2.58;78.91;97848.30;1732102;81;25802;-84
2021/11/23 01:16:36;;;;;;;21.50;13.40;;;;;;;2.59;78.76;97845.15;1733314;81;25878;-84
2021/11/23 01:19:03;;;;;;;18.73;13.45;;;;;;;2.51;78.55;97849.41;1733421;81;25748;-84
2021/11/23 01:21:30;;;;;;;19.98;13.40;;;;;;;2.40;78.51;97860.28;1733338;81;27467;-84
2021/11/23 01:23:56;;;;;;;21.10;13.88;;;;;;;2.32;78.55;97862.84;1733241;81;25771;-84
2021/11/23 01:26:23;;;;;;;20.27;13.70;;;;;;;2.23;78.57;97869.06;1733263;81;26443;-84
2021/11/23 01:28:49;;;;;;;21.00;13.93;;;;;;;2.15;78.70;97872.47;1733350;81;25684;-84
2021/11/23 01:31:16;;;;;;;19.20;13.72;;;;;;;2.11;78.85;97874.23;1733327;81;25701;-84
2021/11/23 01:33:43;;;;;;;18.23;12.55;;;;;;;2.04;78.85;97867.83;1733137;81;27417;-84
2021/11/23 01:36:09;;;;;;;20.95;12.75;;;;;;;2.01;78.91;97874.77;1733204;81;25798;-84
2021/11/23 01:38:36;;;;;;;20.77;13.25;;;;;;;2.00;78.98;97879.75;1733205;82;25727;-84
2021/11/23 01:41:03;;;;;;;22.73;12.65;;;;;;;1.98;78.98;97877.23;1733081;82;25782;-84
2021/11/23 01:43:29;;;;;;;20.45;12.53;;;;;;;1.98;78.97;97881.22;1733300;81;25689;-84
2021/11/23 01:45:56;;;;;;;22.07;13.22;;;;;;;1.98;78.81;97877.72;1733298;81;28158;-84
2021/11/23 01:48:23;;;;;;;18.35;12.47;;;;;;;2.01;78.99;97879.61;1733214;82;25231;-84
2021/11/23 01:50:50;;;;;;;19.65;12.18;;;;;;;2.04;79.04;97877.98;1735875;79;25779;-84
2021/11/23 01:53:17;;;;;;;21.20;11.95;;;;;;;2.06;79.04;97879.15;1754499;81;25704;-85
2021/11/23 01:55:44;;;;;;;17.15;11.45;;;;;;;2.09;79.03;97877.53;1754486;80;26289;-84
2021/11/23 01:58:13;;;;;;;21.00;12.58;;;;;;;2.10;79.07;97873.89;1754467;80;27423;-85
2021/11/23 02:00:41;;;;;;;18.37;12.03;;;;;;;2.11;79.04;97875.08;1754391;80;25752;-85
2021/11/23 02:03:08;;;;;;;22.00;11.38;;;;;;;2.14;78.98;97876.61;1754519;80;25795;-84
2021/11/23 02:05:35;;;;;;;18.27;11.35;;;;;;;2.13;78.82;97878.92;1754359;80;25749;-84
2021/11/23 02:08:02;;;;;;;16.67;11.40;;;;;;;2.10;78.73;97875.22;1754465;80;25734;-84
2021/11/23 02:10:29;;;;;;;19.00;11.50;;;;;;;2.05;78.57;97878.83;1754376;80;27562;-84
2021/11/23 02:12:56;;;;;;;17.45;10.88;;;;;;;1.99;78.58;97872.25;1754406;80;25711;-84
2021/11/23 02:15:23;;;;;;;19.40;11.18;;;;;;;1.90;78.47;97864.31;1754271;81;25289;-84
2021/11/23 02:17:50;;;;;;;24.43;12.82;;;;;;;1.86;78.61;97877.06;1754540;80;25699;-85
2021/11/23 02:20:20;;;;;;;21.90;12.07;;;;;;;1.85;78.61;97874.55;1754514;80;25793;-84
2021/11/23 02:22:49;;;;;;;17.30;10.88;;;;;;;1.83;78.55;97877.34;1754466;80;27506;-84
2021/11/23 02:25:18;;;;;;;17.77;10.32;;;;;;;1.77;78.47;97876.61;1754327;80;25794;-84
2021/11/23 02:27:48;;;;;;;17.85;10.82;;;;;;;1.66;78.41;97874.13;1754485;80;25794;-84
2021/11/23 02:30:15;;;;;;;15.32;10.10;;;;;;;1.64;78.52;97884.91;1754402;80;26233;-84
2021/11/23 02:32:54;;;;;;;16.37;10.80;;;;;;;1.63;78.54;97885.89;1737854;80;25723;-84
2021/11/23 02:35:24;;;;;;;15.50;10.80;;;;;;;1.58;78.51;97882.81;1754245;81;28103;-84
2021/11/23 02:37:54;;;;;;;18.45;11.05;;;;;;;1.54;78.56;97886.76;1754348;80;25810;-84
2021/11/23 02:40:22;;;;;;;15.32;10.58;;;;;;;1.53;78.64;97892.22;1741155;81;25261;-84
2021/11/23 02:42:49;;;;;;;19.55;11.57;;;;;;;1.53;78.78;97890.89;1754465;81;25765;-82
2021/11/23 02:45:23;;;;;;;18.98;12.43;;;;;;;1.53;78.82;97895.72;1754393;80;25852;-83
2021/11/23 02:47:51;;;;;;;21.70;11.70;;;;;;;1.53;78.86;97903.70;1754359;80;28122;-83
2021/11/23 02:50:18;;;;;;;19.70;11.75;;;;;;;1.54;78.94;97912.03;1754248;80;25721;-83
2021/11/23 02:52:48;;;;;;;19.75;12.05;;;;;;;1.56;79.00;97914.55;1751689;80;25746;-84
2021/11/23 02:55:16;;;;;;;18.37;11.15;;;;;;;1.54;78.94;97909.38;1794852;79;26466;-83
2021/11/23 02:57:43;;;;;;;14.95;10.28;;;;;;;1.54;79.05;97904.55;1778419;79;25701;-84
2021/11/23 03:00:18;;;;;;;15.55;10.93;;;;;;;1.57;79.14;97901.08;1791643;80;27427;-84
2021/11/23 03:02:46;;;;;;;14.63;10.58;;;;;;;1.57;79.16;97901.08;1791356;78;25867;-83
2021/11/23 03:05:13;;;;;;;17.02;10.72;;;;;;;1.60;79.21;97906.13;1791677;78;25712;-83
2021/11/23 03:07:40;;;;;;;14.40;10.03;;;;;;;1.61;79.27;97903.81;1791726;78;25731;-83
2021/11/23 03:10:09;;;;;;;18.27;11.63;;;;;;;1.65;79.28;97900.39;1791699;78;25640;-83
2021/11/23 03:12:39;;;;;;;16.30;11.63;;;;;;;1.66;79.19;97894.92;1791752;78;28008;-83
2021/11/23 03:15:09;;;;;;;19.30;11.55;;;;;;;1.66;79.18;97897.59;1791586;78;25787;-84
2021/11/23 03:17:35;;;;;;;16.25;10.80;;;;;;;1.67;79.12;97904.59;1791918;78;26014;-84
2021/11/23 03:20:06;;;;;;;16.50;10.93;;;;;;;1.66;79.22;97898.92;1791890;78;25760;-84
2021/11/23 03:22:32;;;;;;;17.37;11.53;;;;;;;1.66;79.25;97908.72;1791893;78;26256;-83
2021/11/23 03:25:00;;;;;;;22.17;13.05;;;;;;;1.65;79.25;97909.21;1791846;78;27539;-83
2021/11/23 03:27:26;;;;;;;17.95;11.65;;;;;;;1.60;79.17;97906.13;1791627;78;25704;-83
2021/11/23 03:29:53;;;;;;;20.30;12.63;;;;;;;1.60;79.29;97902.63;1791769;78;25707;-83
2021/11/23 03:32:20;;;;;;;18.70;11.97;;;;;;;1.63;79.37;97905.84;1791903;80;25786;-83
2021/11/23 03:34:48;;;;;;;19.67;12.73;;;;;;;1.61;79.32;97903.81;1791785;78;25738;-83
2021/11/23 03:37:22;;;;;;;19.27;12.23;;;;;;;1.62;79.30;97904.17;1772729;80;27375;-83
2021/11/23 03:39:52;;;;;;;17.35;12.10;;;;;;;1.65;79.36;97899.90;1760381;80;25896;-83
2021/11/23 03:42:19;;;;;;;20.12;13.38;;;;;;;1.69;79.43;97899.13;1793474;77;25823;-83
2021/11/23 03:44:46;;;;;;;18.12;12.75;;;;;;;1.72;79.45;97900.14;1819259;77;25744;-83
2021/11/23 03:47:15;;;;;;;19.40;12.30;;;;;;;1.74;79.43;97900.84;1819990;77;25688;-83
2021/11/23 03:49:46;;;;;;;16.97;11.40;;;;;;;1.77;79.40;97908.06;1778420;79;28261;-83
2021/11/23 03:52:13;;;;;;;16.40;11.18;;;;;;;1.79;79.40;97904.77;1795913;78;26035;-83
2021/11/23 03:54:39;;;;;;;18.37;12.10;;;;;;;1.79;79.35;97903.93;1803400;78;25839;-83
2021/11/23 03:57:06;;;;;;;18.00;11.63;;;;;;;1.79;79.34;97910.09;1760379;80;25735;-83
2021/11/23 03:59:33;;;;;;;17.75;12.73;;;;;;;1.77;79.31;97902.73;1803669;78;25230;-83
2021/11/23 04:01:59;;;;;;;16.52;10.98;;;;;;;1.74;79.27;97903.02;1803724;79;27373;-83
2021/11/23 04:04:26;;;;;;;19.35;12.15;;;;;;;1.76;79.35;97903.72;1760162;80;26097;-83
2021/11/23 04:06:53;;;;;;;17.30;11.45;;;;;;;1.77;79.42;97901.41;1803667;79;25736;-83
2021/11/23 04:09:19;;;;;;;20.17;11.83;;;;;;;1.79;79.41;97903.44;1760364;80;25792;-84
2021/11/23 04:11:46;;;;;;;15.72;11.53;;;;;;;1.75;79.32;97898.05;1803556;78;25775;-83
2021/11/23 04:14:13;;;;;;;21.27;12.65;;;;;;;1.73;79.39;97915.98;1760445;80;27401;-83
2021/11/23 04:16:39;;;;;;;21.37;13.22;;;;;;;1.74;79.44;97912.33;1803629;78;25819;-83
2021/11/23 04:19:06;;;;;;;20.43;13.25;;;;;;;1.76;79.46;97912.20;1760527;80;26271;-84
2021/11/23 04:21:32;;;;;;;21.27;13.08;;;;;;;1.78;79.50;97916.39;1803606;79;25714;-83
2021/11/23 04:23:59;;;;;;;21.37;13.55;;;;;;;1.79;79.48;97911.42;1803566;78;25676;-84
2021/11/23 04:26:26;;;;;;;20.70;14.18;;;;;;;1.74;79.39;97908.34;1760301;80;28215;-84
2021/11/23 04:28:52;;;;;;;23.18;13.98;;;;;;;1.76;79.52;97913.03;1803422;78;25673;-84
2021/11/23 04:31:19;;;;;;;22.62;13.28;;;;;;;1.80;79.53;97911.77;1760403;80;25761;-84
2021/11/23 04:33:45;;;;;;;26.87;13.68;;;;;;;1.77;79.45;97908.06;1803707;78;25707;-84
2021/11/23 04:36:12;;;;;;;23.77;15.20;;;;;;;1.73;79.32;97909.81;1760464;80;25768;-83
2021/11/23 04:38:39;;;;;;;25.82;15.60;;;;;;;1.79;79.44;97911.42;1803524;78;27451;-84
2021/11/23 04:41:05;;;;;;;25.70;15.00;;;;;;;1.83;79.46;97905.79;1760234;80;25801;-84
2021/11/23 04:43:32;;;;;;;23.62;14.68;;;;;;;1.76;79.39;97903.72;1803464;78;25754;-84
2021/11/23 04:45:58;;;;;;;25.88;15.68;;;;;;;1.74;79.44;97904.34;1760425;80;26432;-83
2021/11/23 04:48:26;;;;;;;27.10;15.40;;;;;;;1.70;79.45;97905.61;1803661;78;25712;-83
2021/11/23 04:50:55;;;;;;;24.45;15.70;;;;;;;1.70;79.52;97903.44;1760454;80;27449;-83
2021/11/23 04:53:22;;;;;;;26.27;15.63;;;;;;;1.72;79.55;97903.65;1795303;78;26277;-84
2021/11/23 04:55:51;;;;;;;22.42;15.45;;;;;;;1.74;79.58;97904.34;1792576;78;25239;-83
2021/11/23 04:58:18;;;;;;;28.42;15.95;;;;;;;1.75;79.54;97900.70;1791537;79;25777;-84
2021/11/23 05:00:45;;;;;;;38.83;20.75;;;;;;;1.74;79.50;97893.70;1792248;78;25266;-83
2021/11/23 05:03:12;;;;;;;36.00;18.77;;;;;;;1.72;79.39;97898.33;1792236;78;27406;-83
2021/11/23 05:05:39;;;;;;;34.35;19.65;;;;;;;1.72;79.30;97901.48;1792546;79;25657;-83
2021/11/23 05:08:06;;;;;;;27.65;16.67;;;;;;;1.74;79.36;97907.01;1792629;78;25751;-83
2021/11/23 05:10:33;;;;;;;29.32;16.27;;;;;;;1.72;79.35;97903.65;1792576;78;25768;-83
2021/11/23 05:12:59;;;;;;;26.75;16.05;;;;;;;1.70;79.33;97899.45;1792607;78;25684;-83
2021/11/23 05:15:26;;;;;;;33.40;16.52;;;;;;;1.66;79.44;97901.58;1792583;78;27330;-83
2021/11/23 05:17:52;;;;;;;28.25;16.52;;;;;;;1.67;79.48;97899.76;1792388;78;25767;-83
2021/11/23 05:20:19;;;;;;;23.00;15.13;;;;;;;1.67;79.47;97900.59;1792571;78;25639;-83
2021/11/23 05:22:45;;;;;;;28.27;16.70;;;;;;;1.66;79.37;97895.41;1792569;78;25729;-83
2021/11/23 05:25:12;;;;;;;33.02;16.15;;;;;;;1.71;79.31;97901.97;1792698;78;25724;-84
2021/11/23 05:27:40;;;;;;;26.77;15.60;;;;;;;1.72;79.23;97901.48;1792584;78;27284;-85
2021/11/23 05:30:08;;;;;;;29.63;18.40;;;;;;;1.69;79.24;97902.59;1781358;79;25672;-84
2021/11/23 05:32:35;;;;;;;32.38;21.33;;;;;;;1.69;79.24;97903.92;1794699;78;25820;-83
2021/11/23 05:35:01;;;;;;;54.20;30.23;;;;;;;1.69;79.26;97901.79;1794537;79;25773;-84
2021/11/23 05:37:28;;;;;;;56.25;31.35;;;;;;;1.71;79.20;97906.45;1781420;79;25657;-84
2021/11/23 05:39:54;;;;;;;53.20;30.85;;;;;;;1.73;79.06;97902.67;1794618;78;27396;-83
2021/11/23 05:42:21;;;;;;;50.55;29.55;;;;;;;1.79;78.80;97909.25;1781429;79;25812;-83
2021/11/23 05:44:47;;;;;;;39.95;24.95;;;;;;;1.84;78.54;97907.47;1794712;78;25783;-84
2021/11/23 05:47:14;;;;;;;39.33;24.47;;;;;;;1.90;78.39;97904.24;1781518;79;25659;-84
2021/11/23 05:49:42;;;;;;;40.78;24.77;;;;;;;1.90;78.38;97905.58;1794743;78;25605;-84
2021/11/23 05:52:08;;;;;;;40.45;23.52;;;;;;;1.90;78.42;97904.24;1794289;78;28140;-84
2021/11/23 05:54:36;;;;;;;28.70;19.80;;;;;;;1.91;78.46;97906.77;1791604;78;26479;-84
2021/11/23 05:57:03;;;;;;;22.62;14.95;;;;;;;1.92;78.37;97908.45;1791644;78;25977;-84
2021/11/23 05:59:29;;;;;;;31.45;17.60;;;;;;;1.95;78.21;97911.28;1791646;79;25730;-84
2021/11/23 06:01:56;;;;;;;33.63;18.05;;;;;;;1.96;77.91;97914.30;1769670;80;26364;-84
2021/11/23 06:04:22;;;;;;;30.32;16.90;;;;;;;1.96;77.87;97918.29;1791503;78;27422;-84
2021/11/23 06:06:49;;;;;;;30.17;17.40;;;;;;;1.92;77.92;97916.43;1791684;78;25761;-84
2021/11/23 06:09:16;;;;;;;30.52;17.23;;;;;;;1.95;77.74;97919.27;1819858;77;25635;-84
2021/11/23 06:11:42;;;;;;;27.48;16.48;;;;;;;1.95;77.85;97928.59;1819821;77;26563;-84
2021/11/23 06:14:09;;;;;;;25.40;15.18;;;;;;;1.89;77.73;97927.85;1819790;77;26408;-84
2021/11/23 06:16:37;;;;;;;20.57;14.10;;;;;;;1.87;77.79;97917.84;1819797;78;27414;-84
2021/11/23 06:19:03;;;;;;;27.80;16.73;;;;;;;1.91;77.64;97921.90;1819636;77;25762;-84
2021/11/23 06:21:30;;;;;;;28.50;18.35;;;;;;;1.96;77.54;97920.95;1819880;77;25641;-84
2021/11/23 06:23:57;;;;;;;29.50;16.60;;;;;;;1.98;77.58;97924.31;1819812;77;25767;-84
2021/11/23 06:26:23;;;;;;;27.02;15.78;;;;;;;1.95;77.30;97927.26;1819935;77;25269;-84
2021/11/23 06:28:50;;;;;;;24.00;15.53;;;;;;;1.97;77.29;97930.63;1819886;77;27525;-84
2021/11/23 06:31:16;;;;;;;26.55;16.00;;;;;;;1.98;77.25;97932.30;1819788;78;25757;-84
2021/11/23 06:33:43;;;;;;;25.08;14.87;;;;;;;1.98;77.35;97941.13;1819708;77;25726;-84
2021/11/23 06:36:09;;;;;;;22.13;14.87;;;;;;;1.93;77.28;97939.91;1819872;77;25783;-84
2021/11/23 06:38:36;;;;;;;25.60;16.65;;;;;;;1.90;77.18;97948.17;1819863;78;26216;-84
2021/11/23 06:41:02;;;;;;;34.60;20.50;;;;;;;1.87;77.11;97956.44;1819696;77;28193;-84
2021/11/23 06:43:29;;;;;;;67.70;33.35;;;;;;;1.89;76.96;97961.13;1819772;77;25803;-84
2021/11/23 06:45:56;;;;;;;67.03;35.33;;;;;;;1.85;77.01;97967.72;1819919;77;25691;-84
2021/11/23 06:48:23;;;;;;;71.12;37.00;;;;;;;1.81;77.10;97969.32;1819676;77;26363;-83
2021/11/23 06:50:49;;;;;;;70.97;42.78;;;;;;;1.81;77.23;97974.65;1820127;78;25605;-84
2021/11/23 06:53:16;;;;;;;53.68;33.42;;;;;;;1.80;77.11;97976.98;1819886;78;28062;-84
2021/11/23 06:55:43;;;;;;;24.18;15.40;;;;;;;1.80;77.02;97979.66;1820219;77;26301;-84
2021/11/23 06:58:11;;;;;;;26.25;16.00;;;;;;;1.78;76.56;97980.28;1778832;79;25752;-84
2021/11/23 07:00:39;;;;;;;24.47;16.37;;;;;;;1.80;76.40;97986.31;1794749;78;25772;-84
2021/11/23 07:03:06;;;;;;;26.23;17.15;;;;;;;1.84;76.44;97992.16;1778815;79;25670;-84
2021/11/23 07:05:33;;;;;;;30.27;16.32;;;;;;;1.87;76.48;97992.38;1794672;78;27540;-84
2021/11/23 07:07:59;;;;;;;27.20;16.30;;;;;;;1.94;76.41;97988.14;1778713;79;25757;-84
2021/11/23 07:10:26;;;;;;;54.05;28.25;;;;;;;2.01;76.31;97990.60;1795018;78;25745;-84
2021/11/23 07:12:53;;;;;;;39.42;21.48;;;;;;;2.08;76.17;97986.37;1778766;79;25752;-84
2021/11/23 07:15:19;;;;;;;31.62;17.82;;;;;;;2.11;75.99;97988.75;1794864;78;26025;-84
2021/11/23 07:17:46;;;;;;;31.33;17.62;;;;;;;2.13;75.82;97992.11;1778689;79;27417;-84
2021/11/23 07:20:12;;;;;;;26.30;15.48;;;;;;;2.13;75.87;97996.11;1794824;78;25716;-84
2021/11/23 07:22:39;;;;;;;25.52;15.32;;;;;;;2.19;75.84;98000.84;1778901;79;25703;-84
2021/11/23 07:25:06;;;;;;;25.82;15.38;;;;;;;2.23;75.79;97998.25;1794951;78;25900;-84
2021/11/23 07:27:33;;;;;;;27.48;16.90;;;;;;;2.26;75.74;97993.97;1778838;79;25725;-84
2021/11/23 07:30:00;;;;;;;29.45;18.87;;;;;;;2.32;75.62;97985.88;1794922;78;27447;-84
2021/11/23 07:32:26;;;;;;;29.70;16.45;;;;;;;2.31;75.45;97986.36;1778637;79;25738;-84
2021/11/23 07:34:53;;;;;;;54.45;29.60;;;;;;;2.31;75.20;97989.52;1795026;78;25815;-84
2021/11/23 07:37:19;;;;;;;65.62;38.80;;;;;;;2.27;75.24;97990.33;1778563;79;25755;-84
2021/11/23 07:39:47;;;;;;;53.52;34.33;;;;;;;2.32;75.28;97992.53;1794902;78;25680;-84
2021/11/23 07:42:14;;;;;;;39.90;26.50;;;;;;;2.38;75.08;97988.81;1760469;79;27574;-85
2021/11/23 07:44:41;;;;;;;29.75;19.32;;;;;;;2.41;75.05;97991.68;1791373;78;25894;-84
2021/11/23 07:47:08;;;;;;;19.05;12.80;;;;;;;2.45;74.84;97993.89;1778792;79;25213;-84
2021/11/23 07:49:34;;;;;;;17.67;12.75;;;;;;;2.40;74.50;97990.84;1794876;78;26413;-84
2021/11/23 07:52:01;;;;;;;21.35;12.35;;;;;;;2.37;74.51;97993.79;1778776;79;25714;-84
2021/11/23 07:54:27;;;;;;;17.77;12.20;;;;;;;2.36;74.34;97994.77;1794648;78;27500;-84
2021/11/23 07:56:54;;;;;;;23.62;12.45;;;;;;;2.37;74.25;97994.28;1741659;80;25853;-85
2021/11/23 07:59:21;;;;;;;16.77;11.35;;;;;;;2.39;74.19;97997.64;1737757;81;25722;-85
2021/11/23 08:01:47;;;;;;;15.83;11.20;;;;;;;2.43;74.09;97991.02;1737741;81;25827;-84
2021/11/23 08:04:14;;;;;;;15.68;11.50;;;;;;;2.48;73.95;97995.42;1737828;81;25693;-84
2021/11/23 08:06:40;;;;;;;13.20;9.83;;;;;;;2.49;73.87;97992.62;1737845;82;27362;-84
2021/11/23 08:09:07;;;;;;;14.68;10.15;;;;;;;2.44;73.57;97998.88;1737681;81;25223;-84
2021/11/23 08:11:33;;;;;;;15.43;10.32;;;;;;;2.43;73.37;98005.67;1737994;82;26616;-84
2021/11/23 08:14:00;;;;;;;15.08;9.33;;;;;;;2.41;73.46;98001.84;1737945;81;25650;-84
2021/11/23 08:16:27;;;;;;;14.95;8.98;;;;;;;2.44;73.29;97997.53;1737761;82;25764;-84
2021/11/23 08:18:53;;;;;;;14.23;9.60;;;;;;;2.44;73.36;97993.54;1737881;82;28088;-84
2021/11/23 08:21:20;;;;;;;11.63;8.45;;;;;;;2.44;73.12;97998.88;1737671;82;26336;-84
2021/11/23 08:23:47;;;;;;;10.85;8.55;;;;;;;2.42;72.99;98005.32;1737806;82;25815;-84
2021/11/23 08:26:13;;;;;;;14.43;8.80;;;;;;;2.41;72.86;97999.19;1737695;82;26684;-85
2021/11/23 08:28:41;;;;;;;12.50;8.05;;;;;;;2.34;72.62;98005.22;1737948;81;26261;-84
2021/11/23 08:31:08;;;;;;;29.52;15.60;;;;;;;2.29;72.70;98001.68;1737783;82;27421;-85
2021/11/23 08:33:35;;;;;;;39.42;20.85;;;;;;;2.31;72.62;97994.84;1733156;81;25909;-85
2021/11/23 08:36:02;;;;;;;30.17;18.60;;;;;;;2.38;72.80;97991.48;1731121;81;25880;-85
2021/11/23 08:38:28;;;;;;;22.05;14.80;;;;;;;2.45;72.79;97996.55;1714983;81;26382;-85
2021/11/23 08:40:55;;;;;;;15.95;10.63;;;;;;;2.53;72.60;97995.84;1733275;81;25756;-84
2021/11/23 08:43:22;;;;;;;21.37;12.05;;;;;;;2.60;72.49;97998.25;1729462;81;27405;-85
2021/11/23 08:45:49;;;;;;;20.65;12.93;;;;;;;2.61;72.16;97996.42;1721295;82;25816;-84
2021/11/23 08:48:16;;;;;;;33.90;16.27;;;;;;;2.65;72.11;97991.16;1733197;81;25791;-85
2021/11/23 08:50:43;;;;;;;28.65;15.72;;;;;;;2.73;72.05;97994.76;1733190;81;25951;-84
2021/11/23 08:53:10;;;;;;;25.23;12.75;;;;;;;2.79;71.97;98002.64;1734510;81;26260;-85
2021/11/23 08:55:39;;;;;;;17.77;11.78;;;;;;;2.80;71.78;98009.16;1794935;78;27375;-84
2021/11/23 08:58:07;;;;;;;17.98;10.45;;;;;;;2.80;71.67;98008.32;1778305;79;26297;-84
2021/11/23 09:00:36;;;;;;;17.87;10.50;;;;;;;2.94;71.81;98009.16;1791768;80;25699;-85
2021/11/23 09:03:02;;;;;;;17.07;10.10;;;;;;;3.15;71.68;98001.72;1791632;80;26486;-85
2021/11/23 09:05:32;;;;;;;14.58;9.45;;;;;;;3.42;71.43;98001.33;1791553;80;25629;-85
2021/11/23 09:08:00;;;;;;;11.85;8.30;;;;;;;3.72;71.12;97999.62;1791746;80;27406;-85
2021/11/23 09:10:31;;;;;;;12.75;7.30;;;;;;;4.06;70.30;98002.39;1791696;78;25681;-85
2021/11/23 09:13:00;;;;;;;10.58;7.58;;;;;;;4.25;70.19;98006.69;1791747;80;25653;-86
2021/11/23 09:15:28;;;;;;;24.05;12.88;;;;;;;4.51;69.70;98004.84;1791817;79;25768;-85
2021/11/23 09:18:02;;;;;;;15.83;9.08;;;;;;;4.89;69.60;98012.05;1791899;80;25719;-85
2021/11/23 09:20:34;;;;;;;9.55;6.22;;;;;;;5.08;68.97;98015.79;1791664;78;28238;-85
2021/11/23 09:23:07;;;;;;;;;;;;;;;5.27;68.13;98024.06;1794370;80;26039;-86
2021/11/23 09:25:35;;;;;;;5.37;3.77;;;;;;;5.48;67.16;98016.91;1791842;78;25688;-85
2021/11/23 09:28:04;;;;;;;6.45;3.77;;;;;;;5.62;67.01;98015.77;1791667;79;26403;-86
2021/11/23 09:30:33;;;;;;;4.58;3.17;;;;;;;5.86;66.67;98024.33;1791871;78;25702;-85
2021/11/23 09:33:03;;;;;;;4.03;2.98;;;;;;;5.98;66.24;98012.31;1791744;78;27365;-85
2021/11/23 09:35:29;;;;;;;6.35;3.45;;;;;;;6.10;65.68;98021.69;1791695;78;25647;-86
2021/11/23 09:37:57;;;;;;;5.40;4.03;;;;;;;6.26;65.40;98025.37;1791598;78;25738;-85
2021/11/23 09:40:24;;;;;;;4.05;3.22;;;;;;;6.38;64.82;98021.33;1791662;78;26633;-86
2021/11/23 09:42:51;;;;;;;4.65;3.22;;;;;;;6.48;64.45;98022.81;1791650;78;25721;-86
2021/11/23 09:45:18;;;;;;;4.70;2.60;;;;;;;6.73;64.44;98018.23;1791587;78;27419;-85
2021/11/23 09:47:46;;;;;;;3.52;2.67;;;;;;;7.13;64.48;98016.38;1791712;79;25622;-86
2021/11/23 09:50:13;;;;;;;7.85;2.67;;;;;;;7.52;64.31;98007.78;1791717;78;26328;-86
2021/11/23 09:52:40;;;;;;;4.50;3.10;;;;;;;7.73;63.57;98002.30;1791659;79;26392;-86
2021/11/23 09:55:10;;;;;;;3.35;2.62;;;;;;;8.01;62.55;97996.68;1793785;79;25771;-86
2021/11/23 09:57:37;;;;;;;4.08;3.00;;;;;;;8.17;62.63;97996.55;1794744;78;27534;-86
2021/11/23 10:00:08;;;;;;;4.45;2.60;;;;;;;8.36;61.85;97993.88;1794674;78;26280;-85
2021/11/23 10:02:35;;;;;;;7.33;3.77;;;;;;;8.54;60.63;97992.19;1792558;79;25685;-86
2021/11/23 10:05:15;;;;;;;4.67;3.42;;;;;;;8.59;59.79;97983.05;1794655;78;26340;-86
2021/11/23 10:07:40;;;;;;;4.35;2.80;;;;;;;8.25;59.63;97977.64;1793056;79;25674;-86
2021/11/23 10:10:20;;;;;;;3.60;2.70;;;;;;;8.17;59.61;97987.65;1794828;79;27397;-85
2021/11/23 10:13:00;;;;;;;10.80;4.30;;;;;;;8.34;60.30;97984.31;1794740;78;25267;-85
2021/11/23 10:15:30;;;;;;;12.63;5.17;;;;;;;8.59;59.11;97977.66;1794808;79;25863;-86
2021/11/23 10:18:11;;;;;;;5.47;3.10;;;;;;;8.65;59.24;97979.12;1794856;78;26469;-86
2021/11/23 10:20:51;;;;;;;57.25;18.40;;;;;;;8.96;59.01;97966.79;1794879;79;25682;-87
2021/11/23 10:23:37;;;;;;;16.37;8.10;;;;;;;9.25;58.49;97967.77;1794887;79;27422;-86
2021/11/23 10:26:23;;;;;;;5.65;3.27;;;;;;;9.57;58.42;97959.73;1793638;78;25710;-86
2021/11/23 10:28:55;;;;;;;3.87;2.40;;;;;;;9.91;57.14;97957.67;1794725;78;26365;-86
2021/11/23 10:31:27;;;;;;;3.15;2.27;;;;;;;10.07;56.94;97964.15;1794887;78;32494;-85
2021/11/23 10:34:07;;;;;;;4.90;2.58;;;;;;;10.26;56.46;97970.27;1794824;78;25802;-86
2021/11/23 10:36:41;;;;;;;4.40;2.80;;;;;;;10.40;55.45;97962.57;1773512;79;27487;-86
2021/11/23 10:39:17;;;;;;;7.95;3.85;;;;;;;10.27;55.21;97962.98;1794841;79;25657;-86
2021/11/23 10:41:50;;;;;;;3.33;2.50;;;;;;;10.37;55.52;97952.19;1794960;79;25747;-88
2021/11/23 10:44:22;;;;;;;3.52;2.70;;;;;;;10.69;55.24;97952.59;1794878;79;25727;-87
2021/11/23 10:47:03;;;;;;;3.33;2.42;;;;;;;10.67;53.78;97958.70;1795068;79;25772;-87
2021/11/23 10:49:34;;;;;;;4.40;2.90;;;;;;;10.87;54.62;97951.53;1795027;79;27456;-87
2021/11/23 10:52:03;;;;;;;7.50;4.25;;;;;;;11.23;53.57;97947.78;1794822;79;25725;-86
2021/11/23 10:54:34;;;;;;;5.95;3.55;;;;;;;11.39;52.92;97933.88;1794752;78;26316;-87
2021/11/23 10:57:09;;;;;;;4.40;3.12;;;;;;;11.53;52.10;97939.12;1794775;79;25663;-87
2021/11/23 10:59:42;;;;;;;12.28;6.35;;;;;;;11.57;52.08;97944.97;1794935;79;25705;-87
2021/11/23 11:02:08;;;;;;;4.28;3.20;;;;;;;11.69;51.37;97941.98;1793311;78;27357;-88
2021/11/23 11:04:39;;;;;;;8.53;4.55;;;;;;;11.82;51.73;97937.97;1794500;78;25732;-89
2021/11/23 11:07:07;;;;;;;5.00;3.37;;;;;;;11.74;48.57;97939.98;1795026;78;25859;-89
2021/11/23 11:09:35;;;;;;;4.40;2.40;;;;;;;11.56;50.26;97935.19;1794916;79;25825;-89
2021/11/23 11:12:04;;;;;;;2.00;1.80;;;;;;;11.41;49.08;97929.11;1794799;79;25890;-89
2021/11/23 11:14:36;;;;;;;3.52;1.70;;;;;;;11.26;49.26;97932.48;1794862;79;27420;-87
2021/11/23 11:17:06;;;;;;;2.50;1.90;;;;;;;11.37;49.76;97933.25;1794978;78;26399;-87
2021/11/23 11:19:49;;;;;;;2.37;1.60;;;;;;;11.64;49.25;97932.28;1794936;79;25266;-86
2021/11/23 11:22:19;;;;;;;4.60;2.27;;;;;;;11.54;48.38;97933.20;1794888;79;25769;-87
2021/11/23 11:25:25;;;;;;;2.52;1.75;;;;;;;11.38;48.87;97932.21;1794984;78;25646;-89
2021/11/23 11:27:52;;;;;;;2.30;1.85;;;;;;;11.26;47.88;97928.43;1794838;79;27425;-86
2021/11/23 11:30:35;;;;;;;3.47;2.35;;;;;;;10.96;47.62;97926.05;1794782;78;25816;-89
2021/11/23 11:33:10;;;;;;;8.15;4.65;;;;;;;10.97;48.39;97930.42;1794817;79;26492;-86